createdAt,value
2018-04-24T00:01:14.546Z,2.47
2018-04-24T00:03:42.922Z,2.53
2018-04-24T00:06:11.837Z,3.23
2018-04-24T00:08:40.008Z,2.43
2018-04-24T00:11:08.546Z,2.83
2018-04-24T00:13:36.824Z,3.10
2018-04-24T00:16:05.104Z,2.40
2018-04-24T00:18:34.048Z,3.17
2018-04-24T00:21:02.343Z,2.83
2018-04-24T00:23:30.614Z,2.53
2018-04-24T00:25:58.825Z,2.70
2018-04-24T00:28:27.797Z,2.53
2018-04-24T00:30:56.949Z,3.10
2018-04-24T00:33:25.243Z,2.80
2018-04-24T00:35:53.448Z,3.13
2018-04-24T00:38:22.461Z,2.47
2018-04-24T00:40:50.692Z,2.90
2018-04-24T00:43:18.912Z,3.10
2018-04-24T00:45:47.987Z,2.70
2018-04-24T00:48:16.177Z,2.70
2018-04-24T00:50:46.039Z,2.50
2018-04-24T00:53:26.212Z,2.87
2018-04-24T00:55:54.478Z,2.80
2018-04-24T00:58:23.123Z,2.73
2018-04-24T01:00:52.149Z,2.53
2018-04-24T01:03:21.147Z,2.20
2018-04-24T01:05:49.381Z,2.60
2018-04-24T01:08:17.581Z,2.70
2018-04-24T01:10:45.766Z,2.60
2018-04-24T01:13:14.179Z,2.43
2018-04-24T01:15:42.946Z,2.20
2018-04-24T01:18:17.058Z,2.20
2018-04-24T01:20:47.896Z,2.50
2018-04-24T01:23:20.202Z,2.80
2018-04-24T01:26:07.202Z,2.90
2018-04-24T01:28:50.165Z,3.03
2018-04-24T01:31:24.230Z,2.70
2018-04-24T01:33:52.489Z,2.90
2018-04-24T01:36:25.691Z,3.10
2018-04-24T01:38:54.824Z,2.57
2018-04-24T01:41:23.094Z,2.77
2018-04-24T01:43:52.988Z,2.60
2018-04-24T01:46:21.246Z,2.40
2018-04-24T01:48:49.526Z,2.77
2018-04-24T01:51:17.796Z,2.50
2018-04-24T01:53:46.022Z,2.87
2018-04-24T01:56:14.217Z,2.73
2018-04-24T01:58:42.437Z,2.80
2018-04-24T02:01:11.449Z,2.90
2018-04-24T02:03:39.780Z,2.70
2018-04-24T02:06:13.784Z,2.33
2018-04-24T02:08:43.293Z,3.07
2018-04-24T02:11:12.258Z,2.40
2018-04-24T02:13:40.534Z,2.57
2018-04-24T02:16:09.781Z,2.93
2018-04-24T02:18:38.823Z,2.90
2018-04-24T02:21:07.047Z,2.70
2018-04-24T02:23:36.040Z,3.00
2018-04-24T02:26:04.471Z,2.70
2018-04-24T02:28:32.766Z,2.80
2018-04-24T02:31:01.118Z,2.67
2018-04-24T02:33:29.493Z,3.00
2018-04-24T02:35:57.695Z,3.17
2018-04-24T02:38:25.920Z,3.10
2018-04-24T02:40:54.952Z,2.90
2018-04-24T02:43:23.957Z,2.90
2018-04-24T02:45:52.168Z,3.00
2018-04-24T02:48:20.620Z,3.00
2018-04-24T02:50:48.840Z,2.83
2018-04-24T02:53:18.281Z,3.07
2018-04-24T02:55:46.492Z,2.70
2018-04-24T02:58:14.837Z,2.83
2018-04-24T03:00:43.125Z,2.93
2018-04-24T03:03:12.158Z,2.53
2018-04-24T03:05:40.339Z,2.97
2018-04-24T03:08:08.545Z,3.10
2018-04-24T03:10:36.823Z,3.20
2018-04-24T03:13:05.260Z,2.70
2018-04-24T03:15:34.833Z,2.70
2018-04-24T03:18:03.046Z,3.10
2018-04-24T03:20:31.285Z,2.87
2018-04-24T03:23:00.359Z,2.60
2018-04-24T03:25:29.188Z,3.10
2018-04-24T03:27:57.474Z,3.50
2018-04-24T03:30:25.692Z,3.10
2018-04-24T03:32:54.311Z,2.93
2018-04-24T03:35:22.731Z,3.80
2018-04-24T03:37:51.752Z,3.07
2018-04-24T03:40:20.760Z,2.90
2018-04-24T03:42:49.071Z,3.40
2018-04-24T03:45:17.465Z,2.90
2018-04-24T03:47:45.981Z,3.20
2018-04-24T03:50:14.991Z,2.90
2018-04-24T03:52:44.285Z,3.07
2018-04-24T03:55:13.277Z,3.30
2018-04-24T03:57:41.510Z,3.20
2018-04-24T04:00:09.988Z,3.13
2018-04-24T04:02:39.750Z,3.00
2018-04-24T04:05:08.736Z,3.53
2018-04-24T04:07:36.987Z,3.70
2018-04-24T04:10:05.367Z,3.03
2018-04-24T04:12:33.756Z,3.30
2018-04-24T04:15:01.999Z,3.67
2018-04-24T04:17:42.230Z,3.50
2018-04-24T04:20:23.243Z,3.10
2018-04-24T04:23:04.527Z,3.60
2018-04-24T04:25:33.038Z,3.67
2018-04-24T04:28:01.397Z,3.67
2018-04-24T04:30:29.625Z,3.27
2018-04-24T04:32:58.667Z,3.50
2018-04-24T04:35:27.006Z,3.63
2018-04-24T04:37:56.244Z,3.47
2018-04-24T04:40:24.739Z,3.70
2018-04-24T04:42:54.544Z,3.87
2018-04-24T04:45:22.872Z,3.47
2018-04-24T04:47:52.010Z,3.50
2018-04-24T04:50:20.231Z,3.80
2018-04-24T04:52:48.536Z,3.40
2018-04-24T04:55:16.758Z,3.70
2018-04-24T04:57:45.172Z,3.53
2018-04-24T05:00:13.444Z,3.90
2018-04-24T05:02:42.489Z,3.93
2018-04-24T05:05:10.840Z,4.10
2018-04-24T05:07:39.118Z,4.33
2018-04-24T05:10:08.084Z,4.37
2018-04-24T05:12:36.350Z,4.87
2018-04-24T05:15:04.746Z,4.60
2018-04-24T05:17:33.775Z,5.03
2018-04-24T05:20:02.736Z,4.80
2018-04-24T05:22:30.993Z,4.30
2018-04-24T05:24:59.289Z,4.80
2018-04-24T05:27:27.517Z,4.83
2018-04-24T05:29:55.827Z,5.50
2018-04-24T05:32:24.075Z,4.57
2018-04-24T05:34:52.291Z,5.00
2018-04-24T05:37:20.642Z,5.20
2018-04-24T05:39:48.928Z,5.40
2018-04-24T05:42:17.183Z,5.70
2018-04-24T05:44:45.479Z,5.27
2018-04-24T05:47:14.266Z,5.03
2018-04-24T05:49:42.642Z,5.83
2018-04-24T05:52:10.884Z,5.97
2018-04-24T05:54:40.045Z,7.03
2018-04-24T05:57:09.103Z,6.03
2018-04-24T05:59:37.360Z,6.83
2018-04-24T06:02:05.592Z,6.77
2018-04-24T06:04:34.109Z,7.03
2018-04-24T06:07:02.546Z,6.80
2018-04-24T06:09:31.688Z,7.20
2018-04-24T06:12:00.753Z,7.77
2018-04-24T06:14:29.055Z,8.13
2018-04-24T06:16:57.389Z,7.03
2018-04-24T06:19:25.770Z,8.60
2018-04-24T06:21:54.189Z,7.80
2018-04-24T06:24:23.286Z,9.27
2018-04-24T06:26:51.632Z,8.53
2018-04-24T06:29:19.864Z,7.57
2018-04-24T06:31:48.255Z,7.70
2018-04-24T06:34:16.569Z,8.50
2018-04-24T06:36:45.031Z,8.03
2018-04-24T06:39:13.414Z,8.50
2018-04-24T06:41:41.768Z,8.07
2018-04-24T06:44:10.910Z,8.87
2018-04-24T06:46:39.292Z,7.97
2018-04-24T06:49:07.529Z,7.90
2018-04-24T06:51:35.755Z,9.07
2018-04-24T06:54:04.907Z,8.83
2018-04-24T06:56:33.423Z,8.93
2018-04-24T06:59:01.722Z,8.80
2018-04-24T07:01:30.043Z,8.77
2018-04-24T07:03:58.352Z,9.63
2018-04-24T07:06:26.742Z,9.60
2018-04-24T07:08:55.123Z,10.20
2018-04-24T07:11:23.365Z,9.73
2018-04-24T07:13:51.899Z,9.53
2018-04-24T07:16:20.151Z,10.40
2018-04-24T07:18:48.415Z,11.50
2018-04-24T07:21:16.820Z,11.37
2018-04-24T07:23:45.087Z,11.20
2018-04-24T07:26:13.367Z,11.63
2018-04-24T07:28:41.541Z,12.23
2018-04-24T07:31:09.820Z,12.07
2018-04-24T07:33:38.414Z,11.07
2018-04-24T07:36:06.789Z,11.53
2018-04-24T07:38:35.105Z,10.87
2018-04-24T07:41:04.828Z,10.57
2018-04-24T07:43:33.984Z,10.77
2018-04-24T07:46:02.714Z,10.40
2018-04-24T07:48:31.156Z,9.53
2018-04-24T07:50:59.830Z,9.37
2018-04-24T07:53:28.218Z,9.73
2018-04-24T07:55:56.429Z,9.50
2018-04-24T07:58:25.673Z,9.60
2018-04-24T08:00:53.920Z,9.43
2018-04-24T08:03:22.363Z,8.77
2018-04-24T08:05:50.640Z,8.90
2018-04-24T08:08:21.160Z,8.67
2018-04-24T08:10:49.418Z,8.83
2018-04-24T08:13:17.727Z,8.50
2018-04-24T08:15:46.830Z,9.17
2018-04-24T08:18:16.592Z,8.73
2018-04-24T08:20:45.603Z,8.23
2018-04-24T08:23:13.907Z,8.53
2018-04-24T08:25:42.281Z,8.63
2018-04-24T08:28:10.551Z,8.03
2018-04-24T08:30:39.048Z,8.73
2018-04-24T08:33:07.254Z,8.50
2018-04-24T08:35:35.461Z,7.80
2018-04-24T08:38:03.682Z,7.77
2018-04-24T08:40:31.915Z,8.47
2018-04-24T08:43:00.178Z,7.83
2018-04-24T08:45:28.451Z,7.97
2018-04-24T08:47:57.581Z,8.40
2018-04-24T08:50:26.691Z,7.50
2018-04-24T08:52:55.494Z,7.40
2018-04-24T08:55:23.883Z,7.37
2018-04-24T08:57:52.996Z,6.70
2018-04-24T09:00:21.351Z,6.37
2018-04-24T09:02:51.073Z,6.77
2018-04-24T09:05:36.732Z,6.23
2018-04-24T09:08:05.014Z,6.07
2018-04-24T09:10:33.246Z,5.83
2018-04-24T09:13:02.318Z,6.20
2018-04-24T09:15:31.060Z,6.03
2018-04-24T09:17:59.253Z,6.40
2018-04-24T09:20:27.478Z,5.50
2018-04-24T09:22:56.420Z,5.20
2018-04-24T09:25:24.614Z,5.20
2018-04-24T09:27:53.916Z,4.83
2018-04-24T09:30:22.110Z,5.10
2018-04-24T09:32:50.361Z,5.10
2018-04-24T09:35:24.274Z,5.03
2018-04-24T09:37:52.446Z,4.20
2018-04-24T09:40:20.676Z,5.07
2018-04-24T09:42:49.599Z,4.67
2018-04-24T09:45:18.440Z,5.10
2018-04-24T09:47:47.516Z,5.50
2018-04-24T09:50:17.226Z,4.67
2018-04-24T09:52:45.532Z,4.70
2018-04-24T09:55:15.408Z,4.60
2018-04-24T09:57:43.696Z,4.77
2018-04-24T10:00:12.991Z,4.87
2018-04-24T10:02:41.234Z,4.33
2018-04-24T10:05:09.541Z,4.30
2018-04-24T10:07:37.742Z,4.20
2018-04-24T10:10:06.805Z,4.23
2018-04-24T10:12:35.109Z,4.27
2018-04-24T10:15:04.150Z,3.73
2018-04-24T10:17:32.472Z,4.03
2018-04-24T10:20:00.668Z,3.90
2018-04-24T10:22:28.930Z,3.90
2018-04-24T10:24:57.144Z,3.90
2018-04-24T10:27:26.272Z,4.13
2018-04-24T10:29:54.837Z,4.50
2018-04-24T10:32:23.908Z,4.40
2018-04-24T10:34:52.163Z,4.40
2018-04-24T10:37:20.384Z,3.57
2018-04-24T10:39:51.107Z,3.80
2018-04-24T10:42:19.437Z,3.80
2018-04-24T10:44:47.637Z,4.00
2018-04-24T10:47:15.860Z,3.90
2018-04-24T10:49:44.916Z,3.80
2018-04-24T10:52:14.160Z,4.00
2018-04-24T10:54:42.694Z,3.80
2018-04-24T10:57:11.769Z,3.50
2018-04-24T10:59:40.158Z,3.53
2018-04-24T11:02:09.372Z,3.80
2018-04-24T11:04:38.411Z,3.70
2018-04-24T11:07:06.700Z,4.27
2018-04-24T11:09:35.081Z,3.90
2018-04-24T11:12:03.375Z,4.60
2018-04-24T11:14:31.749Z,3.90
2018-04-24T11:17:00.133Z,3.97
2018-04-24T11:19:28.376Z,4.10
2018-04-24T11:21:58.540Z,4.17
2018-04-24T11:24:26.743Z,3.90
2018-04-24T11:26:55.079Z,4.13
2018-04-24T11:29:23.365Z,4.23
2018-04-24T11:31:51.666Z,4.30
2018-04-24T11:34:19.894Z,4.00
2018-04-24T11:36:48.963Z,4.00
2018-04-24T11:39:17.278Z,4.13
2018-04-24T11:41:45.638Z,4.40
2018-04-24T11:44:15.334Z,4.07
2018-04-24T11:46:43.827Z,4.00
2018-04-24T11:49:14.363Z,4.13
2018-04-24T11:51:43.522Z,4.13
2018-04-24T11:54:11.809Z,3.80
2018-04-24T11:56:40.020Z,4.43
2018-04-24T11:59:09.074Z,3.60
2018-04-24T12:01:37.329Z,3.70
2018-04-24T12:04:05.678Z,4.30
2018-04-24T12:06:34.028Z,4.33
2018-04-24T12:09:07.332Z,4.93
2018-04-24T12:11:35.549Z,4.73
2018-04-24T12:14:03.951Z,4.43
2018-04-24T12:16:34.632Z,4.60
2018-04-24T12:19:07.934Z,5.10
2018-04-24T12:21:37.699Z,4.83
2018-04-24T12:24:05.923Z,4.97
2018-04-24T12:26:34.882Z,5.50
2018-04-24T12:29:03.217Z,4.80
2018-04-24T12:31:32.458Z,4.67
2018-04-24T12:34:00.834Z,5.00
2018-04-24T12:36:29.034Z,5.73
2018-04-24T12:38:57.891Z,5.70
2018-04-24T12:41:27.108Z,5.50
2018-04-24T12:43:55.553Z,5.40
2018-04-24T12:46:23.972Z,5.37
2018-04-24T12:48:53.786Z,6.23
2018-04-24T12:51:22.053Z,5.50
2018-04-24T12:53:51.065Z,6.00
2018-04-24T12:56:19.355Z,6.07
2018-04-24T12:58:48.342Z,6.07
2018-04-24T13:01:16.565Z,6.50
2018-04-24T13:03:45.659Z,6.20
2018-04-24T13:06:13.840Z,6.00
2018-04-24T13:08:42.822Z,6.13
2018-04-24T13:11:11.061Z,6.17
2018-04-24T13:13:40.074Z,6.67
2018-04-24T13:16:09.088Z,6.43
2018-04-24T13:18:38.159Z,6.60
2018-04-24T13:21:07.191Z,6.40
2018-04-24T13:23:36.432Z,6.03
2018-04-24T13:26:05.257Z,5.73
2018-04-24T13:28:34.423Z,6.20
2018-04-24T13:31:02.675Z,6.33
2018-04-24T13:33:30.911Z,5.90
2018-04-24T13:35:59.153Z,6.37
2018-04-24T13:38:27.343Z,6.00
2018-04-24T13:40:57.136Z,5.40
2018-04-24T13:43:25.413Z,5.23
2018-04-24T13:45:53.805Z,5.03
2018-04-24T13:48:22.037Z,5.23
2018-04-24T13:50:51.079Z,4.93
2018-04-24T13:53:20.205Z,4.97
2018-04-24T13:55:48.548Z,5.23
2018-04-24T13:58:16.817Z,5.30
2018-04-24T14:00:45.066Z,4.97
2018-04-24T14:03:13.291Z,5.50
2018-04-24T14:05:41.498Z,4.53
2018-04-24T14:08:10.551Z,5.13
2018-04-24T14:10:38.792Z,5.00
2018-04-24T14:13:07.112Z,4.73
2018-04-24T14:15:35.588Z,5.20
2018-04-24T14:18:03.874Z,4.50
2018-04-24T14:20:32.828Z,4.43
2018-04-24T14:23:01.826Z,4.53
2018-04-24T14:25:30.069Z,4.90
2018-04-24T14:27:58.271Z,4.53
2018-04-24T14:30:26.502Z,4.67
2018-04-24T14:32:54.779Z,4.40
2018-04-24T14:35:23.090Z,4.80
2018-04-24T14:37:52.844Z,4.67
2018-04-24T14:40:21.180Z,5.10
2018-04-24T14:42:50.996Z,4.67
2018-04-24T14:45:20.013Z,5.13
2018-04-24T14:47:49.043Z,4.80
2018-04-24T14:50:17.242Z,5.43
2018-04-24T14:52:47.960Z,5.70
2018-04-24T14:55:16.175Z,5.57
2018-04-24T14:57:45.246Z,5.40
2018-04-24T15:00:13.721Z,5.43
2018-04-24T15:02:42.193Z,4.70
2018-04-24T15:05:10.403Z,5.50
2018-04-24T15:07:38.625Z,4.77
2018-04-24T15:10:06.868Z,5.30
2018-04-24T15:12:36.019Z,5.37
2018-04-24T15:15:04.271Z,5.53
2018-04-24T15:17:32.590Z,5.60
2018-04-24T15:20:00.817Z,5.00
2018-04-24T15:22:29.130Z,4.70
2018-04-24T15:24:57.470Z,4.60
2018-04-24T15:27:25.726Z,4.37
2018-04-24T15:29:55.613Z,4.53
2018-04-24T15:32:23.842Z,4.37
2018-04-24T15:34:52.383Z,4.50
2018-04-24T15:37:20.696Z,4.07
2018-04-24T15:39:49.693Z,3.60
2018-04-24T15:42:18.708Z,3.87
2018-04-24T15:44:47.180Z,3.63
2018-04-24T15:47:15.390Z,3.67
2018-04-24T15:49:43.636Z,3.83
2018-04-24T15:52:11.970Z,3.50
2018-04-24T15:54:42.241Z,4.33
2018-04-24T15:57:10.467Z,3.57
2018-04-24T15:59:38.741Z,3.77
2018-04-24T16:02:07.083Z,4.23
2018-04-24T16:04:35.459Z,4.17
2018-04-24T16:07:03.751Z,4.03
2018-04-24T16:09:32.004Z,3.80
2018-04-24T16:12:01.153Z,4.07
2018-04-24T16:14:29.420Z,3.80
2018-04-24T16:16:57.611Z,3.67
2018-04-24T16:19:26.085Z,4.10
2018-04-24T16:21:54.464Z,3.60
2018-04-24T16:24:22.744Z,3.40
2018-04-24T16:26:51.023Z,3.80
2018-04-24T16:29:19.264Z,3.80
2018-04-24T16:31:47.788Z,3.70
2018-04-24T16:34:16.274Z,4.30
2018-04-24T16:36:44.573Z,4.20
2018-04-24T16:39:12.927Z,4.20
2018-04-24T16:41:41.173Z,4.03
2018-04-24T16:44:09.490Z,3.60
2018-04-24T16:46:38.571Z,3.33
2018-04-24T16:49:07.845Z,3.50
2018-04-24T16:51:36.224Z,3.40
2018-04-24T16:54:04.536Z,3.93
2018-04-24T16:56:32.978Z,4.03
2018-04-24T16:59:01.987Z,3.83
2018-04-24T17:01:30.271Z,3.60
2018-04-24T17:03:58.610Z,3.67
2018-04-24T17:06:28.661Z,4.07
2018-04-24T17:08:57.017Z,3.77
2018-04-24T17:11:25.366Z,3.83
2018-04-24T17:13:53.654Z,3.67
2018-04-24T17:16:21.943Z,3.90
2018-04-24T17:18:51.654Z,3.80
2018-04-24T17:21:19.937Z,4.30
2018-04-24T17:23:48.398Z,3.90
2018-04-24T17:26:17.480Z,3.77
2018-04-24T17:28:46.570Z,3.77
2018-04-24T17:31:14.979Z,3.67
2018-04-24T17:33:43.338Z,3.73
2018-04-24T17:36:11.578Z,3.87
2018-04-24T17:38:40.028Z,3.83
2018-04-24T17:41:09.041Z,4.20
2018-04-24T17:43:37.471Z,4.57
2018-04-24T17:46:05.974Z,4.63
2018-04-24T17:48:34.546Z,4.20
2018-04-24T17:51:03.137Z,4.40
2018-04-24T17:53:32.203Z,4.13
2018-04-24T17:56:00.491Z,4.23
2018-04-24T17:58:28.757Z,4.43
2018-04-24T18:00:56.986Z,4.53
2018-04-24T18:03:25.242Z,4.50
2018-04-24T18:05:53.651Z,4.47
2018-04-24T18:08:21.924Z,4.33
2018-04-24T18:10:51.198Z,4.03
2018-04-24T18:13:20.196Z,3.73
2018-04-24T18:15:48.609Z,4.20
2018-04-24T18:18:17.699Z,4.20
2018-04-24T18:20:47.403Z,4.20
2018-04-24T18:23:16.584Z,5.40
2018-04-24T18:25:44.839Z,13.90
2018-04-24T18:28:13.241Z,4.67
2018-04-24T18:30:41.639Z,4.83
2018-04-24T18:33:11.412Z,5.03
2018-04-24T18:35:39.690Z,6.13
2018-04-24T18:38:08.741Z,6.00
2018-04-24T18:40:38.581Z,5.13
2018-04-24T18:43:06.912Z,5.17
2018-04-24T18:45:36.206Z,4.90
2018-04-24T18:48:05.233Z,5.20
2018-04-24T18:50:35.064Z,5.20
2018-04-24T18:53:04.485Z,6.00
2018-04-24T18:55:32.897Z,5.47
2018-04-24T18:58:01.946Z,5.90
2018-04-24T19:00:31.162Z,6.07
2018-04-24T19:02:59.384Z,6.83
2018-04-24T19:05:27.777Z,9.93
2018-04-24T19:07:56.178Z,7.30
2018-04-24T19:10:24.424Z,7.00
2018-04-24T19:12:52.789Z,7.30
2018-04-24T19:15:21.057Z,7.50
2018-04-24T19:17:50.738Z,7.87
2018-04-24T19:20:20.516Z,7.67
2018-04-24T19:22:49.635Z,8.30
2018-04-24T19:25:24.240Z,8.40
2018-04-24T19:27:53.493Z,8.30
2018-04-24T19:30:21.818Z,7.80
2018-04-24T19:32:50.040Z,8.83
2018-04-24T19:35:18.431Z,9.33
2018-04-24T19:37:46.994Z,10.40
2018-04-24T19:40:20.823Z,10.43
2018-04-24T19:42:49.247Z,11.17
2018-04-24T19:45:18.744Z,11.07
2018-04-24T19:47:47.211Z,11.17
2018-04-24T19:50:19.425Z,11.10
2018-04-24T19:52:47.744Z,11.70
2018-04-24T19:55:22.058Z,11.40
2018-04-24T19:57:50.359Z,11.20
2018-04-24T20:00:18.783Z,10.63
2018-04-24T20:02:48.368Z,10.57
2018-04-24T20:05:16.768Z,10.47
2018-04-24T20:07:45.795Z,10.23
2018-04-24T20:10:14.208Z,10.30
2018-04-24T20:12:44.839Z,9.67
2018-04-24T20:15:13.884Z,9.33
2018-04-24T20:17:44.201Z,9.73
2018-04-24T20:20:16.475Z,11.00
2018-04-24T20:22:45.663Z,10.17
2018-04-24T20:25:14.101Z,10.53
2018-04-24T20:27:42.407Z,9.57
2018-04-24T20:30:11.002Z,9.50
2018-04-24T20:32:39.460Z,9.20
2018-04-24T20:35:08.763Z,9.00
2018-04-24T20:37:36.964Z,8.97
2018-04-24T20:40:05.316Z,9.43
2018-04-24T20:42:33.562Z,9.60
2018-04-24T20:45:02.592Z,9.00
2018-04-24T20:47:30.831Z,8.80
2018-04-24T20:49:59.169Z,9.07
2018-04-24T20:52:27.634Z,7.83
2018-04-24T20:54:56.116Z,8.00
2018-04-24T20:57:25.943Z,7.10
2018-04-24T20:59:54.990Z,6.87
2018-04-24T21:02:24.161Z,6.17
2018-04-24T21:04:52.510Z,6.20
2018-04-24T21:07:20.827Z,5.43
2018-04-24T21:09:49.242Z,5.43
2018-04-24T21:12:17.488Z,5.60
2018-04-24T21:14:46.495Z,4.97
2018-04-24T21:17:14.817Z,5.23
2018-04-24T21:19:43.851Z,5.60
2018-04-24T21:22:13.123Z,5.10
2018-04-24T21:24:41.327Z,5.60
2018-04-24T21:27:09.513Z,5.00
2018-04-24T21:29:38.571Z,5.70
2018-04-24T21:32:07.573Z,5.50
2018-04-24T21:34:35.864Z,5.33
2018-04-24T21:37:04.156Z,5.47
2018-04-24T21:39:33.187Z,6.63
2018-04-24T21:42:01.407Z,6.03
2018-04-24T21:44:29.648Z,6.20
2018-04-24T21:46:59.071Z,6.57
2018-04-24T21:49:27.263Z,6.10
2018-04-24T21:51:55.497Z,5.73
2018-04-24T21:54:23.763Z,6.00
2018-04-24T21:56:52.194Z,5.80
2018-04-24T21:59:20.465Z,5.73
2018-04-24T22:01:48.766Z,5.77
2018-04-24T22:04:17.141Z,5.73
2018-04-24T22:06:45.339Z,5.47
2018-04-24T22:09:13.687Z,5.40
2018-04-24T22:11:43.447Z,5.60
2018-04-24T22:14:12.423Z,5.10
2018-04-24T22:16:41.476Z,5.27
2018-04-24T22:19:09.957Z,5.27
2018-04-24T22:21:38.178Z,5.47
2018-04-24T22:24:07.151Z,5.33
2018-04-24T22:26:35.389Z,5.23
2018-04-24T22:29:03.714Z,4.87
2018-04-24T22:31:32.001Z,4.87
2018-04-24T22:34:01.010Z,5.10
2018-04-24T22:36:30.021Z,5.07
2018-04-24T22:38:58.257Z,4.77
2018-04-24T22:41:26.624Z,4.80
2018-04-24T22:43:55.094Z,5.23
2018-04-24T22:46:23.312Z,4.90
2018-04-24T22:48:51.526Z,4.80
2018-04-24T22:51:19.886Z,4.93
2018-04-24T22:53:48.912Z,4.33
2018-04-24T22:56:17.956Z,4.93
2018-04-24T22:58:46.987Z,5.10
2018-04-24T23:01:16.006Z,5.13
2018-04-24T23:03:44.196Z,5.10
2018-04-24T23:06:12.454Z,4.47
2018-04-24T23:08:40.696Z,5.13
2018-04-24T23:11:20.830Z,5.10
2018-04-24T23:14:01.946Z,4.83
2018-04-24T23:16:42.148Z,5.17
2018-04-24T23:19:22.501Z,5.00
2018-04-24T23:21:50.289Z,4.97
2018-04-24T23:24:18.496Z,4.63
2018-04-24T23:26:47.486Z,5.10
2018-04-24T23:29:16.561Z,4.73
2018-04-24T23:31:45.573Z,4.60
2018-04-24T23:34:14.724Z,4.77
2018-04-24T23:36:43.207Z,4.53
2018-04-24T23:39:11.558Z,4.30
2018-04-24T23:41:40.617Z,4.50
2018-04-24T23:44:09.830Z,4.43
2018-04-24T23:46:38.060Z,4.70
2018-04-24T23:49:06.301Z,4.40
2018-04-24T23:51:34.525Z,4.43
2018-04-24T23:54:02.755Z,4.40
2018-04-24T23:56:31.761Z,4.60
2018-04-24T23:59:00.999Z,3.93
